createdAt,value
2023-05-16T00:00:30.904Z,7.70
2023-05-16T00:01:30.992Z,9.10
2023-05-16T00:02:31.028Z,6.90
2023-05-16T00:03:31.020Z,6.00
2023-05-16T00:04:30.881Z,7.50
2023-05-16T00:05:30.808Z,6.60
2023-05-16T00:06:30.805Z,8.00
2023-05-16T00:07:30.789Z,7.50
2023-05-16T00:08:30.827Z,9.00
2023-05-16T00:09:30.784Z,7.70
2023-05-16T00:10:30.763Z,7.60
2023-05-16T00:11:30.727Z,9.30
2023-05-16T00:12:30.849Z,6.00
2023-05-16T00:13:30.708Z,6.60
2023-05-16T00:14:30.701Z,6.50
2023-05-16T00:15:30.639Z,6.70
2023-05-16T00:16:30.676Z,5.90
2023-05-16T00:17:30.707Z,5.90
2023-05-16T00:18:30.679Z,6.80
2023-05-16T00:19:30.640Z,5.20
2023-05-16T00:20:30.759Z,6.20
2023-05-16T00:21:30.688Z,4.50
2023-05-16T00:22:30.621Z,4.90
2023-05-16T00:23:30.577Z,5.50
2023-05-16T00:24:30.566Z,5.90
2023-05-16T00:25:30.567Z,5.20
2023-05-16T00:26:30.537Z,7.20
2023-05-16T00:27:51.499Z,7.40
2023-05-16T00:28:30.485Z,4.20
2023-05-16T00:29:30.460Z,5.10
2023-05-16T00:30:30.542Z,6.10
2023-05-16T00:31:30.504Z,7.20
2023-05-16T00:32:31.425Z,6.50
2023-05-16T00:33:30.424Z,5.30
2023-05-16T00:34:30.469Z,5.80
2023-05-16T00:35:30.485Z,6.50
2023-05-16T00:36:30.385Z,4.80
2023-05-16T00:37:30.373Z,4.00
2023-05-16T00:38:30.373Z,5.50
2023-05-16T00:39:30.351Z,5.80
2023-05-16T00:40:30.347Z,5.90
2023-05-16T00:41:30.322Z,5.50
2023-05-16T00:42:30.289Z,4.60
2023-05-16T00:43:30.317Z,6.60
2023-05-16T00:44:30.994Z,6.40
2023-05-16T00:45:30.343Z,5.70
2023-05-16T00:46:30.364Z,5.90
2023-05-16T00:47:30.263Z,4.70
2023-05-16T00:48:30.220Z,6.20
2023-05-16T00:49:30.190Z,6.50
2023-05-16T00:50:30.226Z,5.80
2023-05-16T00:51:30.212Z,6.30
2023-05-16T00:52:30.151Z,4.80
2023-05-16T00:53:30.159Z,7.20
2023-05-16T00:54:30.168Z,5.60
2023-05-16T00:55:30.140Z,4.50
2023-05-16T00:56:30.151Z,5.20
2023-05-16T00:57:30.128Z,3.90
2023-05-16T00:58:30.100Z,6.40
2023-05-16T00:59:30.103Z,5.70
2023-05-16T01:00:30.118Z,5.30
2023-05-16T01:01:30.193Z,6.50
2023-05-16T01:02:30.161Z,5.90
2023-05-16T01:03:30.042Z,8.10
2023-05-16T01:04:30.007Z,6.10
2023-05-16T01:05:30.166Z,6.80
2023-05-16T01:06:30.018Z,5.80
2023-05-16T01:07:30.034Z,6.00
2023-05-16T01:08:29.928Z,7.90
2023-05-16T01:09:29.995Z,6.00
2023-05-16T01:10:29.966Z,7.20
2023-05-16T01:11:29.927Z,7.90
2023-05-16T01:12:29.930Z,7.40
2023-05-16T01:13:29.912Z,7.60
2023-05-16T01:14:32.618Z,9.30
2023-05-16T01:15:30.014Z,10.40
2023-05-16T01:16:29.964Z,7.20
2023-05-16T01:17:29.879Z,8.80
2023-05-16T01:18:29.834Z,6.90
2023-05-16T01:19:29.960Z,7.30
2023-05-16T01:20:29.889Z,6.10
2023-05-16T01:21:29.850Z,6.70
2023-05-16T01:22:29.841Z,7.60
2023-05-16T01:23:29.760Z,11.20
2023-05-16T01:24:29.758Z,7.60
2023-05-16T01:25:29.771Z,12.60
2023-05-16T01:26:29.705Z,9.70
2023-05-16T01:27:29.757Z,10.40
2023-05-16T01:28:38.403Z,9.00
2023-05-16T01:29:29.644Z,10.30
2023-05-16T01:30:29.669Z,9.20
2023-05-16T01:31:29.678Z,7.50
2023-05-16T01:32:29.646Z,10.40
2023-05-16T01:33:29.629Z,13.60
2023-05-16T01:34:29.626Z,10.60
2023-05-16T01:35:29.609Z,8.40
2023-05-16T01:36:29.573Z,9.70
2023-05-16T01:37:29.571Z,12.60
2023-05-16T01:38:29.527Z,11.00
2023-05-16T01:39:29.530Z,15.20
2023-05-16T01:40:29.518Z,9.60
2023-05-16T01:41:29.513Z,8.00
2023-05-16T01:42:29.522Z,7.90
2023-05-16T01:43:29.551Z,7.70
2023-05-16T01:44:29.584Z,13.70
2023-05-16T01:45:29.908Z,8.90
2023-05-16T01:46:29.584Z,12.50
2023-05-16T01:47:29.499Z,11.50
2023-05-16T01:48:29.466Z,8.20
2023-05-16T01:49:29.396Z,8.20
2023-05-16T01:50:29.405Z,13.60
2023-05-16T01:51:29.371Z,12.10
2023-05-16T01:52:29.434Z,8.30
2023-05-16T01:53:29.410Z,13.00
2023-05-16T01:54:29.345Z,10.10
2023-05-16T01:55:29.346Z,10.20
2023-05-16T01:56:29.311Z,10.70
2023-05-16T01:57:29.350Z,7.80
2023-05-16T01:58:29.617Z,9.30
2023-05-16T01:59:29.281Z,11.80
2023-05-16T02:00:29.337Z,10.00
2023-05-16T02:01:29.376Z,13.80
2023-05-16T02:02:29.291Z,13.70
2023-05-16T02:03:29.256Z,9.40
2023-05-16T02:04:29.207Z,13.70
2023-05-16T02:05:29.452Z,12.30
2023-05-16T02:06:29.238Z,14.00
2023-05-16T02:07:29.199Z,12.80
2023-05-16T02:08:29.187Z,10.30
2023-05-16T02:09:29.154Z,14.50
2023-05-16T02:10:29.181Z,10.50
2023-05-16T02:11:29.121Z,9.80
2023-05-16T02:12:29.109Z,12.30
2023-05-16T02:13:29.078Z,11.70
2023-05-16T02:14:29.109Z,10.80
2023-05-16T02:15:29.320Z,10.80
2023-05-16T02:16:29.073Z,12.10
2023-05-16T02:17:29.079Z,10.60
2023-05-16T02:18:29.063Z,11.10
2023-05-16T02:19:29.007Z,11.20
2023-05-16T02:20:29.025Z,13.10
2023-05-16T02:21:29.010Z,12.60
2023-05-16T02:22:29.068Z,10.60
2023-05-16T02:23:29.018Z,10.90
2023-05-16T02:24:29.026Z,8.50
2023-05-16T02:25:29.146Z,13.40
2023-05-16T02:26:28.940Z,12.30
2023-05-16T02:27:28.914Z,13.00
2023-05-16T02:28:28.882Z,11.90
2023-05-16T02:29:28.906Z,11.50
2023-05-16T02:30:28.869Z,11.50
2023-05-16T02:31:28.973Z,12.20
2023-05-16T02:32:28.927Z,16.70
2023-05-16T02:33:28.858Z,14.90
2023-05-16T02:34:28.837Z,12.70
2023-05-16T02:35:29.046Z,13.80
2023-05-16T02:36:28.802Z,13.30
2023-05-16T02:37:28.829Z,14.10
2023-05-16T02:38:28.865Z,15.80
2023-05-16T02:39:28.782Z,12.80
2023-05-16T02:40:28.769Z,12.30
2023-05-16T02:41:28.786Z,12.90
2023-05-16T02:42:28.753Z,13.70
2023-05-16T02:43:28.726Z,15.20
2023-05-16T02:44:28.725Z,12.30
2023-05-16T02:45:28.871Z,16.50
2023-05-16T02:46:28.794Z,12.40
2023-05-16T02:47:28.744Z,14.90
2023-05-16T02:48:28.655Z,13.50
2023-05-16T02:49:28.628Z,13.80
2023-05-16T02:50:28.677Z,10.60
2023-05-16T02:51:28.641Z,9.00
2023-05-16T02:52:28.645Z,8.90
2023-05-16T02:53:28.597Z,12.90
2023-05-16T02:54:28.673Z,10.90
2023-05-16T02:55:28.622Z,12.90
2023-05-16T02:56:28.599Z,14.30
2023-05-16T02:57:28.640Z,11.30
2023-05-16T02:58:28.567Z,15.90
2023-05-16T02:59:28.612Z,16.10
2023-05-16T03:00:28.484Z,10.90
2023-05-16T03:01:28.505Z,14.50
2023-05-16T03:02:28.611Z,12.30
2023-05-16T03:03:28.584Z,12.70
2023-05-16T03:04:28.536Z,15.70
2023-05-16T03:05:28.746Z,10.60
2023-05-16T03:06:28.608Z,14.50
2023-05-16T03:07:28.429Z,12.20
2023-05-16T03:08:28.458Z,13.80
2023-05-16T03:09:28.521Z,12.50
2023-05-16T03:10:28.400Z,13.40
2023-05-16T03:11:28.386Z,14.20
2023-05-16T03:12:28.418Z,14.60
2023-05-16T03:13:28.360Z,13.10
2023-05-16T03:14:28.383Z,11.10
2023-05-16T03:15:28.628Z,10.70
2023-05-16T03:16:28.319Z,16.10
2023-05-16T03:17:28.301Z,15.80
2023-05-16T03:18:28.260Z,11.20
2023-05-16T03:19:28.289Z,16.70
2023-05-16T03:20:28.282Z,17.20
2023-05-16T03:21:28.250Z,13.00
2023-05-16T03:22:28.219Z,11.10
2023-05-16T03:23:28.224Z,15.10
2023-05-16T03:24:28.240Z,12.40
2023-05-16T03:25:28.308Z,11.50
2023-05-16T03:26:28.164Z,13.40
2023-05-16T03:27:28.223Z,13.20
2023-05-16T03:28:31.198Z,14.10
2023-05-16T03:29:28.236Z,12.90
2023-05-16T03:30:28.131Z,14.80
2023-05-16T03:31:28.139Z,11.70
2023-05-16T03:32:28.186Z,14.00
2023-05-16T03:33:28.155Z,16.10
2023-05-16T03:34:28.115Z,14.80
2023-05-16T03:35:28.252Z,11.20
2023-05-16T03:36:28.036Z,12.40
2023-05-16T03:37:28.173Z,16.00
2023-05-16T03:38:28.027Z,10.60
2023-05-16T03:39:28.053Z,15.70
2023-05-16T03:40:28.071Z,12.20
2023-05-16T03:41:27.976Z,14.30
2023-05-16T03:42:28.094Z,14.40
2023-05-16T03:43:27.990Z,16.50
2023-05-16T03:44:28.222Z,15.30
2023-05-16T03:45:28.255Z,16.90
2023-05-16T03:46:28.034Z,16.10
2023-05-16T03:47:27.944Z,12.10
2023-05-16T03:48:27.991Z,12.40
2023-05-16T03:49:27.878Z,17.80
2023-05-16T03:50:27.880Z,14.90
2023-05-16T03:51:27.874Z,13.30
2023-05-16T03:52:27.850Z,12.80
2023-05-16T03:53:27.846Z,15.90
2023-05-16T03:54:27.838Z,17.60
2023-05-16T03:55:28.039Z,16.60
2023-05-16T03:56:27.904Z,15.30
2023-05-16T03:57:27.797Z,18.40
2023-05-16T03:58:27.902Z,12.20
2023-05-16T03:59:27.798Z,14.80
2023-05-16T04:00:27.740Z,20.70
2023-05-16T04:01:27.750Z,14.80
2023-05-16T04:02:28.495Z,14.00
2023-05-16T04:03:27.811Z,23.10
2023-05-16T04:04:27.746Z,11.40
2023-05-16T04:05:27.995Z,10.50
2023-05-16T04:06:27.750Z,14.80
2023-05-16T04:07:27.795Z,13.60
2023-05-16T04:08:27.706Z,12.00
2023-05-16T04:09:27.652Z,14.00
2023-05-16T04:10:27.696Z,15.80
2023-05-16T04:11:27.670Z,13.40
2023-05-16T04:12:27.591Z,12.60
2023-05-16T04:13:27.680Z,15.80
2023-05-16T04:14:27.583Z,16.80
2023-05-16T04:15:27.875Z,13.70
2023-05-16T04:16:27.628Z,15.60
2023-05-16T04:17:27.582Z,9.00
2023-05-16T04:18:27.565Z,14.10
2023-05-16T04:19:27.548Z,15.20
2023-05-16T04:20:27.782Z,11.80
2023-05-16T04:21:27.532Z,10.30
2023-05-16T04:22:27.610Z,14.40
2023-05-16T04:23:27.477Z,12.20
2023-05-16T04:24:27.564Z,14.40
2023-05-16T04:25:27.962Z,11.70
2023-05-16T04:26:27.439Z,13.90
2023-05-16T04:27:27.500Z,14.90
2023-05-16T04:28:27.467Z,16.30
2023-05-16T04:29:27.381Z,14.90
2023-05-16T04:30:27.414Z,17.20
2023-05-16T04:31:27.361Z,13.00
2023-05-16T04:32:27.562Z,13.40
2023-05-16T04:33:27.539Z,13.00
2023-05-16T04:34:27.340Z,12.80
2023-05-16T04:35:27.641Z,12.40
2023-05-16T04:36:27.402Z,12.10
2023-05-16T04:37:27.408Z,13.50
2023-05-16T04:38:27.408Z,15.70
2023-05-16T04:39:27.388Z,12.50
2023-05-16T04:40:27.284Z,13.60
2023-05-16T04:41:27.366Z,15.90
2023-05-16T04:42:27.334Z,14.20
2023-05-16T04:43:27.215Z,11.00
2023-05-16T04:44:27.551Z,15.80
2023-05-16T04:45:27.450Z,15.10
2023-05-16T04:46:27.198Z,15.00
2023-05-16T04:47:27.238Z,10.90
2023-05-16T04:48:27.178Z,11.60
2023-05-16T04:49:27.148Z,11.30
2023-05-16T04:50:27.110Z,11.00
2023-05-16T04:51:27.172Z,12.10
2023-05-16T04:52:27.095Z,15.20
2023-05-16T04:53:27.130Z,12.70
2023-05-16T04:54:27.101Z,10.10
2023-05-16T04:55:27.433Z,10.90
2023-05-16T04:56:27.078Z,15.70
2023-05-16T04:57:27.107Z,14.50
2023-05-16T04:58:27.068Z,13.20
2023-05-16T04:59:27.246Z,11.50
2023-05-16T05:00:27.221Z,11.50
2023-05-16T05:01:27.226Z,12.20
2023-05-16T05:02:28.013Z,13.10
2023-05-16T05:03:27.061Z,14.80
2023-05-16T05:04:27.224Z,11.50
2023-05-16T05:05:27.309Z,12.30
2023-05-16T05:06:27.345Z,12.70
2023-05-16T05:07:27.139Z,15.20
2023-05-16T05:08:26.948Z,12.10
2023-05-16T05:09:26.938Z,11.10
2023-05-16T05:10:26.908Z,16.60
2023-05-16T05:11:26.888Z,10.90
2023-05-16T05:12:26.972Z,13.80
2023-05-16T05:13:26.925Z,10.80
2023-05-16T05:14:26.913Z,14.30
2023-05-16T05:15:26.963Z,11.60
2023-05-16T05:16:26.828Z,12.40
2023-05-16T05:17:26.913Z,13.80
2023-05-16T05:18:26.845Z,14.20
2023-05-16T05:19:26.871Z,10.70
2023-05-16T05:20:26.750Z,14.00
2023-05-16T05:21:26.749Z,13.60
2023-05-16T05:22:26.765Z,11.70
2023-05-16T05:23:26.843Z,11.60
2023-05-16T05:24:26.708Z,11.60
2023-05-16T05:25:27.022Z,12.70
2023-05-16T05:26:26.685Z,13.80
2023-05-16T05:27:26.774Z,11.00
2023-05-16T05:28:26.763Z,13.70
2023-05-16T05:29:26.808Z,8.50
2023-05-16T05:30:26.674Z,12.50
2023-05-16T05:31:26.671Z,11.10
2023-05-16T05:32:26.665Z,10.50
2023-05-16T05:33:26.646Z,11.60
2023-05-16T05:34:26.686Z,9.00
2023-05-16T05:35:26.756Z,10.60
2023-05-16T05:36:26.555Z,9.80
2023-05-16T05:37:26.597Z,10.30
2023-05-16T05:38:26.518Z,11.30
2023-05-16T05:39:26.584Z,10.50
2023-05-16T05:40:26.494Z,11.40
2023-05-16T05:41:26.606Z,7.80
2023-05-16T05:42:26.507Z,11.30
2023-05-16T05:43:26.501Z,12.40
2023-05-16T05:44:26.446Z,10.70
2023-05-16T05:45:26.668Z,14.00
2023-05-16T05:46:26.480Z,10.90
2023-05-16T05:47:26.555Z,11.70
2023-05-16T05:48:26.392Z,10.20
2023-05-16T05:49:26.474Z,7.40
2023-05-16T05:50:26.401Z,9.90
2023-05-16T05:51:26.414Z,8.90
2023-05-16T05:52:26.388Z,10.10
2023-05-16T05:53:26.386Z,9.70
2023-05-16T05:54:26.334Z,13.10
2023-05-16T05:55:26.688Z,14.10
2023-05-16T05:56:26.324Z,10.60
2023-05-16T05:57:26.358Z,11.30
2023-05-16T05:58:26.340Z,14.30
2023-05-16T05:59:26.362Z,8.70
2023-05-16T06:00:26.233Z,9.30
2023-05-16T06:01:26.256Z,8.90
2023-05-16T06:02:26.420Z,11.70
2023-05-16T06:03:26.282Z,11.10
2023-05-16T06:04:26.176Z,7.80
2023-05-16T06:05:26.411Z,13.30
2023-05-16T06:06:26.252Z,10.00
2023-05-16T06:07:26.253Z,10.80
2023-05-16T06:08:26.153Z,9.10
2023-05-16T06:09:26.323Z,10.80
2023-05-16T06:10:26.129Z,9.40
2023-05-16T06:11:26.254Z,12.40
2023-05-16T06:12:26.102Z,13.90
2023-05-16T06:13:26.184Z,10.90
2023-05-16T06:14:26.106Z,8.90
2023-05-16T06:15:26.301Z,10.10
2023-05-16T06:16:26.090Z,9.30
2023-05-16T06:17:26.082Z,10.40
2023-05-16T06:18:26.008Z,9.00
2023-05-16T06:19:26.225Z,11.50
2023-05-16T06:20:25.997Z,11.60
2023-05-16T06:21:25.993Z,9.00
2023-05-16T06:22:25.991Z,16.60
2023-05-16T06:23:25.968Z,8.90
2023-05-16T06:24:25.987Z,8.50
2023-05-16T06:25:26.203Z,12.50
2023-05-16T06:26:25.971Z,11.40
2023-05-16T06:27:25.910Z,9.80
2023-05-16T06:28:25.896Z,9.00
2023-05-16T06:29:25.883Z,9.60
2023-05-16T06:30:25.961Z,10.20
2023-05-16T06:31:25.860Z,9.70
2023-05-16T06:32:25.877Z,10.10
2023-05-16T06:33:25.832Z,9.80
2023-05-16T06:34:25.904Z,9.80
2023-05-16T06:35:25.966Z,10.40
2023-05-16T06:36:25.741Z,8.30
2023-05-16T06:37:25.743Z,12.10
2023-05-16T06:38:25.769Z,7.50
2023-05-16T06:39:25.787Z,10.10
2023-05-16T06:40:25.731Z,9.20
2023-05-16T06:41:25.801Z,8.30
2023-05-16T06:42:25.839Z,10.20
2023-05-16T06:43:25.658Z,10.50
2023-05-16T06:44:33.252Z,11.80
2023-05-16T06:45:25.836Z,9.40
2023-05-16T06:46:25.811Z,9.70
2023-05-16T06:47:25.726Z,9.90
2023-05-16T06:48:25.716Z,8.30
2023-05-16T06:49:25.624Z,9.40
2023-05-16T06:50:25.640Z,10.40
2023-05-16T06:51:25.620Z,6.60
2023-05-16T06:52:25.688Z,7.40
2023-05-16T06:53:25.687Z,9.10
2023-05-16T06:54:25.532Z,8.00
2023-05-16T06:55:25.720Z,6.80
2023-05-16T06:56:25.540Z,6.80
2023-05-16T06:57:25.514Z,8.10
2023-05-16T06:58:25.486Z,8.70
2023-05-16T06:59:26.885Z,9.00
2023-05-16T07:00:25.455Z,9.50
2023-05-16T07:01:25.547Z,8.60
2023-05-16T07:02:25.534Z,7.90
2023-05-16T07:03:25.525Z,8.90
2023-05-16T07:04:25.482Z,8.90
2023-05-16T07:05:25.532Z,6.60
2023-05-16T07:06:25.368Z,10.40
2023-05-16T07:07:25.371Z,7.70
2023-05-16T07:08:25.371Z,7.00
2023-05-16T07:09:25.350Z,9.20
2023-05-16T07:10:25.411Z,8.20
2023-05-16T07:11:25.367Z,8.10
2023-05-16T07:12:25.377Z,7.20
2023-05-16T07:13:25.305Z,6.50
2023-05-16T07:14:26.054Z,6.60
2023-05-16T07:15:25.475Z,5.80
2023-05-16T07:16:25.269Z,7.60
2023-05-16T07:17:25.291Z,6.00
2023-05-16T07:18:25.251Z,6.50
2023-05-16T07:19:25.345Z,7.50
2023-05-16T07:20:25.256Z,7.80
2023-05-16T07:21:25.313Z,5.60
2023-05-16T07:22:25.194Z,5.10
2023-05-16T07:23:25.193Z,6.50
2023-05-16T07:24:25.122Z,7.50
2023-05-16T07:25:25.223Z,5.90
2023-05-16T07:26:25.090Z,8.40
2023-05-16T07:27:25.186Z,5.90
2023-05-16T07:28:25.078Z,3.40
2023-05-16T07:29:25.057Z,8.00
2023-05-16T07:30:25.312Z,5.80
2023-05-16T07:31:25.056Z,4.50
2023-05-16T07:32:25.044Z,5.60
2023-05-16T07:33:25.008Z,6.00
2023-05-16T07:34:25.016Z,8.80
2023-05-16T07:35:25.002Z,5.70
2023-05-16T07:36:24.965Z,4.20
2023-05-16T07:37:24.895Z,4.40
2023-05-16T07:38:25.003Z,6.90
2023-05-16T07:39:24.921Z,6.10
2023-05-16T07:40:24.939Z,4.60
2023-05-16T07:41:24.862Z,6.30
2023-05-16T07:42:24.850Z,5.70
2023-05-16T07:43:25.549Z,4.20
2023-05-16T07:44:24.846Z,5.40
2023-05-16T07:45:24.802Z,6.10
2023-05-16T07:46:24.838Z,4.60
2023-05-16T07:47:24.890Z,5.20
2023-05-16T07:48:24.776Z,6.40
2023-05-16T07:49:24.726Z,6.10
2023-05-16T07:50:24.751Z,7.00
2023-05-16T07:51:24.739Z,5.40
2023-05-16T07:52:24.723Z,6.30
2023-05-16T07:53:24.745Z,5.60
2023-05-16T07:54:24.693Z,3.70
2023-05-16T07:55:24.790Z,3.80
2023-05-16T07:56:24.729Z,4.90
2023-05-16T07:57:25.259Z,7.20
2023-05-16T07:58:24.594Z,6.30
2023-05-16T07:59:24.622Z,5.80
2023-05-16T08:00:24.621Z,4.70
2023-05-16T08:01:24.593Z,4.80
2023-05-16T08:02:24.746Z,5.50
2023-05-16T08:03:24.754Z,5.20
2023-05-16T08:04:24.557Z,5.80
2023-05-16T08:05:24.606Z,5.80
2023-05-16T08:06:24.520Z,6.20
2023-05-16T08:07:24.473Z,5.20
2023-05-16T08:08:24.442Z,4.30
2023-05-16T08:09:24.516Z,5.60
2023-05-16T08:10:24.432Z,5.30
2023-05-16T08:11:24.407Z,5.80
2023-05-16T08:12:24.417Z,5.50
2023-05-16T08:13:24.389Z,5.20
2023-05-16T08:14:24.383Z,5.10
2023-05-16T08:15:24.391Z,6.30
2023-05-16T08:16:24.357Z,5.20
2023-05-16T08:17:24.369Z,6.00
2023-05-16T08:18:24.415Z,6.60
2023-05-16T08:19:24.379Z,5.40
2023-05-16T08:20:24.269Z,7.20
2023-05-16T08:21:24.269Z,4.50
2023-05-16T08:22:24.361Z,6.20
2023-05-16T08:23:24.228Z,5.20
2023-05-16T08:24:24.303Z,5.50
2023-05-16T08:25:24.241Z,5.10
2023-05-16T08:26:24.216Z,5.60
2023-05-16T08:27:24.168Z,5.30
2023-05-16T08:28:24.180Z,4.00
2023-05-16T08:29:24.145Z,7.20
2023-05-16T08:30:24.170Z,5.80
2023-05-16T08:31:24.181Z,5.50
2023-05-16T08:32:24.101Z,4.00
2023-05-16T08:33:24.093Z,4.60
2023-05-16T08:34:24.079Z,4.50
2023-05-16T08:35:24.113Z,5.30
2023-05-16T08:36:24.074Z,6.50
2023-05-16T08:37:24.034Z,5.30
2023-05-16T08:38:23.999Z,4.90
2023-05-16T08:39:23.995Z,5.20
2023-05-16T08:40:24.007Z,5.10
2023-05-16T08:41:23.974Z,5.50
2023-05-16T08:42:23.980Z,5.40
2023-05-16T08:43:23.964Z,4.90
2023-05-16T08:44:23.927Z,4.30
2023-05-16T08:45:23.935Z,5.20
2023-05-16T08:46:24.019Z,5.60
2023-05-16T08:47:23.898Z,3.50
2023-05-16T08:48:23.957Z,4.90
2023-05-16T08:49:23.876Z,3.70
2023-05-16T08:50:23.860Z,4.60
2023-05-16T08:51:23.867Z,4.70
2023-05-16T08:52:23.797Z,3.10
2023-05-16T08:53:25.562Z,4.40
2023-05-16T08:54:24.564Z,3.40
2023-05-16T08:55:23.764Z,5.30
2023-05-16T08:56:23.775Z,4.60
2023-05-16T08:57:23.742Z,3.50
2023-05-16T08:58:23.741Z,4.80
2023-05-16T08:59:23.743Z,4.60
2023-05-16T09:00:23.740Z,3.40
2023-05-16T09:01:23.749Z,3.20
2023-05-16T09:02:23.671Z,4.40
2023-05-16T09:03:23.759Z,3.60
2023-05-16T09:04:23.872Z,3.80
2023-05-16T09:05:23.639Z,3.10
2023-05-16T09:06:23.702Z,3.10
2023-05-16T09:07:23.602Z,5.80
2023-05-16T09:08:23.581Z,6.00
2023-05-16T09:09:23.622Z,5.00
2023-05-16T09:10:23.557Z,6.80
2023-05-16T09:11:23.614Z,4.30
2023-05-16T09:12:23.536Z,4.70
2023-05-16T09:13:23.541Z,3.70
2023-05-16T09:14:23.497Z,5.60
2023-05-16T09:15:23.492Z,5.30
2023-05-16T09:16:23.538Z,2.50
2023-05-16T09:17:32.237Z,3.30
2023-05-16T09:18:24.495Z,3.90
2023-05-16T09:19:23.567Z,3.60
2023-05-16T09:20:23.413Z,3.90
2023-05-16T09:21:23.559Z,4.70
2023-05-16T09:22:23.396Z,4.70
2023-05-16T09:23:23.364Z,5.80
2023-05-16T09:24:23.397Z,4.90
2023-05-16T09:26:23.365Z,3.70
2023-05-16T09:27:23.313Z,6.30
2023-05-16T09:28:23.318Z,5.00
2023-05-16T09:29:23.307Z,5.60
2023-05-16T09:30:23.308Z,4.30
2023-05-16T09:31:23.308Z,5.80
2023-05-16T09:32:23.259Z,6.00
2023-05-16T09:33:23.265Z,4.60
2023-05-16T09:34:23.253Z,3.60
2023-05-16T09:35:39.175Z,4.40
2023-05-16T09:36:24.241Z,4.30
2023-05-16T09:37:23.183Z,4.90
2023-05-16T09:38:23.177Z,4.50
2023-05-16T09:39:23.156Z,3.70
2023-05-16T09:40:23.151Z,4.40
2023-05-16T09:41:23.111Z,3.20
2023-05-16T09:42:23.157Z,4.20
2023-05-16T09:43:23.117Z,4.70
2023-05-16T09:44:23.120Z,3.10
2023-05-16T09:45:23.069Z,1.60
2023-05-16T09:46:23.229Z,4.80
2023-05-16T09:47:23.065Z,5.30
2023-05-16T09:48:23.037Z,5.00
2023-05-16T09:49:23.026Z,6.40
2023-05-16T09:50:23.013Z,2.70
2023-05-16T09:51:22.990Z,4.20
2023-05-16T09:52:22.973Z,3.70
2023-05-16T09:53:23.053Z,4.40
2023-05-16T09:54:23.016Z,3.40
2023-05-16T09:55:22.923Z,4.60
2023-05-16T09:56:22.942Z,3.20
2023-05-16T09:57:22.945Z,4.70
2023-05-16T09:58:22.947Z,4.50
2023-05-16T09:59:23.000Z,4.50
2023-05-16T10:00:22.881Z,3.30
2023-05-16T10:01:22.917Z,3.30
2023-05-16T10:02:22.999Z,4.70
2023-05-16T10:03:22.916Z,4.40
2023-05-16T10:04:23.115Z,4.70
2023-05-16T10:05:22.833Z,3.60
2023-05-16T10:06:22.790Z,4.40
2023-05-16T10:07:22.795Z,5.30
2023-05-16T10:08:22.767Z,5.40
2023-05-16T10:09:22.781Z,4.40
2023-05-16T10:10:22.775Z,6.20
2023-05-16T10:11:22.775Z,5.40
2023-05-16T10:12:22.800Z,6.60
2023-05-16T10:13:22.728Z,5.40
2023-05-16T10:14:22.674Z,3.30
2023-05-16T10:15:22.686Z,5.60
2023-05-16T10:16:22.675Z,5.50
2023-05-16T10:17:22.692Z,4.90
2023-05-16T10:18:22.626Z,5.80
2023-05-16T10:19:22.700Z,4.00
2023-05-16T10:20:22.580Z,4.50
2023-05-16T10:21:22.638Z,5.30
2023-05-16T10:22:22.586Z,7.40
2023-05-16T10:23:22.564Z,8.00
2023-05-16T10:24:22.539Z,5.00
2023-05-16T10:25:22.522Z,6.20
2023-05-16T10:26:22.538Z,7.30
2023-05-16T10:27:22.555Z,5.00
2023-05-16T10:28:22.507Z,4.80
2023-05-16T10:29:22.450Z,5.10
2023-05-16T10:30:22.518Z,5.50
2023-05-16T10:31:22.607Z,5.60
2023-05-16T10:32:22.493Z,5.30
2023-05-16T10:33:22.435Z,3.80
2023-05-16T10:34:22.423Z,5.80
2023-05-16T10:35:22.430Z,4.40
2023-05-16T10:36:22.419Z,4.60
2023-05-16T10:37:22.389Z,4.20
2023-05-16T10:38:22.331Z,4.90
2023-05-16T10:39:22.446Z,4.30
2023-05-16T10:40:22.334Z,5.70
2023-05-16T10:41:22.296Z,6.00
2023-05-16T10:42:22.296Z,4.30
2023-05-16T10:43:22.293Z,5.80
2023-05-16T10:44:22.255Z,5.30
2023-05-16T10:45:22.257Z,4.60
2023-05-16T10:46:22.232Z,4.70
2023-05-16T10:47:22.210Z,4.10
2023-05-16T10:48:22.283Z,5.10
2023-05-16T10:49:22.188Z,4.70
2023-05-16T10:50:22.225Z,2.60
2023-05-16T10:51:22.148Z,4.10
2023-05-16T10:52:22.162Z,3.80
2023-05-16T10:53:22.200Z,4.00
2023-05-16T10:54:22.116Z,3.90
2023-05-16T10:55:22.126Z,2.40
2023-05-16T10:56:22.138Z,3.00
2023-05-16T10:57:22.308Z,2.80
2023-05-16T10:58:22.077Z,2.90
2023-05-16T10:59:25.660Z,2.00
2023-05-16T11:00:22.030Z,3.90
2023-05-16T11:01:22.133Z,3.20
2023-05-16T11:02:22.027Z,3.20
2023-05-16T11:03:22.110Z,3.20
2023-05-16T11:04:21.990Z,4.60
2023-05-16T11:05:21.985Z,2.40
2023-05-16T11:06:23.586Z,2.70
2023-05-16T11:07:22.027Z,2.90
2023-05-16T11:08:21.956Z,4.20
2023-05-16T11:09:21.938Z,3.00
2023-05-16T11:10:21.953Z,3.10
2023-05-16T11:11:21.881Z,3.60
2023-05-16T11:12:21.987Z,4.10
2023-05-16T11:13:21.867Z,2.80
2023-05-16T11:14:21.863Z,3.60
2023-05-16T11:15:21.873Z,2.70
2023-05-16T11:16:21.863Z,2.10
2023-05-16T11:17:21.846Z,2.20
2023-05-16T11:18:21.910Z,2.50
2023-05-16T11:19:21.799Z,2.00
2023-05-16T11:20:21.828Z,2.80
2023-05-16T11:21:21.859Z,1.90
2023-05-16T11:22:21.742Z,4.10
2023-05-16T11:23:21.810Z,3.00
2023-05-16T11:24:21.726Z,3.20
2023-05-16T11:25:21.722Z,6.10
2023-05-16T11:26:21.703Z,5.60
2023-05-16T11:27:21.694Z,4.40
2023-05-16T11:28:21.685Z,2.90
2023-05-16T11:29:21.687Z,6.20
2023-05-16T11:30:21.650Z,1.50
2023-05-16T11:31:21.690Z,3.00
2023-05-16T11:32:21.645Z,1.60
2023-05-16T11:33:21.691Z,4.30
2023-05-16T11:34:21.588Z,2.10
2023-05-16T11:35:21.559Z,2.40
2023-05-16T11:36:21.552Z,0.80
2023-05-16T11:37:21.552Z,0.90
2023-05-16T11:38:21.530Z,1.30
2023-05-16T11:39:21.511Z,1.50
2023-05-16T11:40:21.534Z,0.70
2023-05-16T11:41:21.488Z,0.90
2023-05-16T11:42:21.469Z,2.10
2023-05-16T11:43:21.470Z,1.10
2023-05-16T11:44:21.445Z,3.60
2023-05-16T11:45:21.446Z,1.30
2023-05-16T11:46:21.478Z,2.20
2023-05-16T11:47:21.383Z,2.40
2023-05-16T11:48:32.473Z,1.20
2023-05-16T11:49:22.429Z,1.60
2023-05-16T11:50:21.356Z,1.60
2023-05-16T11:51:21.339Z,1.30
2023-05-16T11:52:21.331Z,1.10
2023-05-16T11:53:21.325Z,3.00
2023-05-16T11:54:21.290Z,0.70
2023-05-16T11:55:32.482Z,2.90
2023-05-16T11:56:22.288Z,1.60
2023-05-16T11:57:21.259Z,2.40
2023-05-16T11:58:21.261Z,1.10
2023-05-16T11:59:21.242Z,2.20
2023-05-16T12:00:21.260Z,1.80
2023-05-16T12:01:21.208Z,2.80
2023-05-16T12:02:21.208Z,1.50
2023-05-16T12:03:21.339Z,2.20
2023-05-16T12:04:21.378Z,1.80
2023-05-16T12:05:21.223Z,2.60
2023-05-16T12:06:21.200Z,1.40
2023-05-16T12:07:23.264Z,2.50
2023-05-16T12:08:21.121Z,1.60
2023-05-16T12:09:21.102Z,2.30
2023-05-16T12:10:21.097Z,2.20
2023-05-16T12:11:21.061Z,2.00
2023-05-16T12:12:21.064Z,0.90
2023-05-16T12:13:21.039Z,1.50
2023-05-16T12:14:21.034Z,3.00
2023-05-16T12:15:21.052Z,1.70
2023-05-16T12:16:21.038Z,1.20
2023-05-16T12:17:20.999Z,2.40
2023-05-16T12:18:20.977Z,1.70
2023-05-16T12:19:20.981Z,2.90
2023-05-16T12:20:20.976Z,1.50
2023-05-16T12:21:20.945Z,2.00
2023-05-16T12:22:21.001Z,2.40
2023-05-16T12:23:20.923Z,1.70
2023-05-16T12:24:20.904Z,1.50
2023-05-16T12:25:20.911Z,1.40
2023-05-16T12:26:20.866Z,2.30
2023-05-16T12:27:20.870Z,3.60
2023-05-16T12:28:20.835Z,2.90
2023-05-16T12:29:20.859Z,2.10
2023-05-16T12:30:20.839Z,3.90
2023-05-16T12:31:31.250Z,2.00
2023-05-16T12:32:21.861Z,1.90
2023-05-16T12:33:20.802Z,1.70
2023-05-16T12:34:20.794Z,3.60
2023-05-16T12:35:20.764Z,3.90
2023-05-16T12:36:20.742Z,3.70
2023-05-16T12:37:20.737Z,2.70
2023-05-16T12:38:20.726Z,1.60
2023-05-16T12:39:20.696Z,1.40
2023-05-16T12:40:20.705Z,0.80
2023-05-16T12:41:20.713Z,1.10
2023-05-16T12:42:21.770Z,1.80
2023-05-16T12:43:20.647Z,1.80
2023-05-16T12:44:20.618Z,2.60
2023-05-16T12:45:20.632Z,2.60
2023-05-16T12:46:20.614Z,2.30
2023-05-16T12:47:20.598Z,1.20
2023-05-16T12:48:20.565Z,1.90
2023-05-16T12:49:20.579Z,1.80
2023-05-16T12:50:20.570Z,2.00
2023-05-16T12:51:20.539Z,2.30
2023-05-16T12:52:20.553Z,2.50
2023-05-16T12:53:20.500Z,2.00
2023-05-16T12:54:20.573Z,2.10
2023-05-16T12:55:20.600Z,1.00
2023-05-16T12:56:20.483Z,5.20
2023-05-16T12:57:20.487Z,2.60
2023-05-16T12:58:20.521Z,2.90
2023-05-16T12:59:20.593Z,1.30
2023-05-16T13:00:20.411Z,2.00
2023-05-16T13:01:20.418Z,2.10
2023-05-16T13:02:20.471Z,2.50
2023-05-16T13:03:20.460Z,2.60
2023-05-16T13:04:20.550Z,2.30
2023-05-16T13:05:20.350Z,1.60
2023-05-16T13:06:20.346Z,1.30
2023-05-16T13:07:20.305Z,2.70
2023-05-16T13:08:20.322Z,4.50
2023-05-16T13:09:20.308Z,5.40
2023-05-16T13:10:20.275Z,2.80